createdAt,value
2022-09-30T00:04:36.015Z,12.07
2022-09-30T00:09:38.891Z,10.18
2022-09-30T00:14:41.561Z,8.90
2022-09-30T00:19:46.665Z,7.72
2022-09-30T00:24:50.422Z,7.75
2022-09-30T00:29:53.933Z,12.10
2022-09-30T00:34:57.813Z,10.65
2022-09-30T00:40:00.629Z,10.47
2022-09-30T00:45:07.194Z,10.30
2022-09-30T00:50:28.490Z,9.48
2022-09-30T00:55:37.374Z,8.70
2022-09-30T01:00:40.338Z,10.70
2022-09-30T01:05:44.808Z,9.32
2022-09-30T01:10:47.812Z,5.63
2022-09-30T01:16:07.241Z,7.70
2022-09-30T01:21:35.344Z,9.07
2022-09-30T01:26:53.271Z,9.73
2022-09-30T01:32:07.196Z,9.82
2022-09-30T01:37:18.911Z,8.30
2022-09-30T01:42:29.239Z,8.20
2022-09-30T01:47:42.271Z,9.10
2022-09-30T01:52:51.054Z,7.65
2022-09-30T01:57:58.234Z,11.10
2022-09-30T02:03:06.742Z,8.95
2022-09-30T02:08:16.947Z,12.30
2022-09-30T02:13:23.484Z,7.63
2022-09-30T02:18:31.760Z,7.57
2022-09-30T02:23:40.771Z,9.52
2022-09-30T02:28:47.395Z,9.88
2022-09-30T02:33:55.640Z,8.85
2022-09-30T02:39:04.082Z,9.23
2022-09-30T02:44:07.292Z,6.80
2022-09-30T02:49:21.602Z,7.85
2022-09-30T02:54:32.155Z,6.38
2022-09-30T02:59:34.809Z,8.68
2022-09-30T03:04:42.074Z,7.18
2022-09-30T03:09:45.100Z,10.02
2022-09-30T03:15:04.449Z,8.23
2022-09-30T03:20:31.121Z,7.88
2022-09-30T03:25:44.625Z,6.95
2022-09-30T03:30:53.736Z,7.72
2022-09-30T03:36:02.688Z,6.85
2022-09-30T03:41:12.665Z,8.95
2022-09-30T03:46:23.184Z,14.57
2022-09-30T03:51:29.382Z,25.13
2022-09-30T03:56:32.136Z,14.70
2022-09-30T04:01:34.732Z,8.43
2022-09-30T04:06:38.669Z,9.70
2022-09-30T04:11:41.387Z,6.67
2022-09-30T04:16:44.009Z,9.35
2022-09-30T04:21:48.053Z,9.48
2022-09-30T04:26:51.113Z,6.63
2022-09-30T04:31:53.945Z,6.68
2022-09-30T04:36:57.972Z,8.40
2022-09-30T04:42:00.673Z,11.68
2022-09-30T04:47:03.562Z,9.95
2022-09-30T04:52:07.858Z,7.63
2022-09-30T04:57:10.446Z,7.60
2022-09-30T05:02:13.776Z,9.30
2022-09-30T05:07:18.058Z,8.25
2022-09-30T05:12:24.039Z,7.03
2022-09-30T05:17:26.800Z,11.25
2022-09-30T05:22:30.725Z,10.32
2022-09-30T05:27:33.520Z,9.95
2022-09-30T05:32:36.209Z,13.73
2022-09-30T05:37:40.494Z,10.73
2022-09-30T05:42:47.259Z,6.55
2022-09-30T05:47:52.911Z,9.98
2022-09-30T05:52:57.454Z,11.40
2022-09-30T06:03:02.469Z,9.85
2022-09-30T06:08:07.437Z,13.80
2022-09-30T06:13:10.799Z,10.18
2022-09-30T06:18:17.700Z,11.15
2022-09-30T06:23:21.863Z,14.80
2022-09-30T06:28:25.244Z,11.25
2022-09-30T06:33:27.953Z,12.95
2022-09-30T06:38:32.137Z,12.82
2022-09-30T06:43:44.865Z,8.82
2022-09-30T06:49:09.763Z,11.52
2022-09-30T06:54:16.465Z,8.60
2022-09-30T06:59:19.296Z,9.77
2022-09-30T07:04:22.107Z,7.93
2022-09-30T07:09:26.255Z,6.13
2022-09-30T07:14:31.396Z,4.88
2022-09-30T07:19:35.125Z,6.88
2022-09-30T07:24:39.027Z,7.27
2022-09-30T07:30:07.265Z,5.78
2022-09-30T07:35:06.213Z,5.53
2022-09-30T07:45:15.998Z,6.10
2022-09-30T07:50:18.826Z,7.15
2022-09-30T07:55:22.956Z,6.95
2022-09-30T08:05:48.611Z,5.55
2022-09-30T08:10:52.589Z,6.65
2022-09-30T08:15:55.265Z,5.25
2022-09-30T08:20:58.366Z,10.90
2022-09-30T08:26:08.015Z,6.50
2022-09-30T08:31:13.140Z,4.75
2022-09-30T08:36:18.290Z,6.72
2022-09-30T08:41:41.796Z,5.13
2022-09-30T08:46:47.554Z,6.68
2022-09-30T08:51:52.651Z,8.25
2022-09-30T08:56:57.497Z,28.27
2022-09-30T09:02:03.303Z,9.00
2022-09-30T09:07:11.581Z,7.82
2022-09-30T09:12:29.050Z,6.47
2022-09-30T09:17:50.291Z,4.43
2022-09-30T09:23:11.477Z,5.85
2022-09-30T09:28:27.197Z,7.50
2022-09-30T09:33:31.990Z,4.32
2022-09-30T09:38:41.591Z,3.33
2022-09-30T09:43:58.337Z,4.15
2022-09-30T09:49:30.565Z,3.92
2022-09-30T09:54:36.588Z,3.60
2022-09-30T09:59:58.486Z,3.53
2022-09-30T10:05:03.043Z,4.07
2022-09-30T10:10:23.006Z,3.35
2022-09-30T10:15:28.152Z,2.38
2022-09-30T10:20:33.300Z,4.43
2022-09-30T10:25:36.724Z,2.03
2022-09-30T10:30:56.781Z,2.53
2022-09-30T10:36:09.753Z,2.20
2022-09-30T10:41:12.821Z,2.78
2022-09-30T10:46:26.807Z,3.78
2022-09-30T10:51:36.275Z,2.47
2022-09-30T10:56:43.137Z,3.35
2022-09-30T11:01:53.748Z,2.72
2022-09-30T11:12:16.180Z,4.65
2022-09-30T11:17:41.126Z,4.43
2022-09-30T11:22:53.738Z,5.30
2022-09-30T11:28:14.920Z,3.88
2022-09-30T11:33:32.278Z,3.03
2022-09-30T11:38:54.625Z,2.75
2022-09-30T11:44:09.112Z,2.53
2022-09-30T11:49:39.091Z,2.10
2022-09-30T11:54:55.103Z,6.03
2022-09-30T12:00:02.468Z,3.80
2022-09-30T12:05:12.892Z,3.40
2022-09-30T12:10:22.100Z,4.45
2022-09-30T12:15:26.962Z,5.18
2022-09-30T12:20:35.179Z,4.90
2022-09-30T12:25:42.999Z,4.53
2022-09-30T12:30:47.826Z,3.28
2022-09-30T12:36:07.315Z,3.72
2022-09-30T12:41:40.873Z,2.42
2022-09-30T12:46:59.276Z,2.50
2022-09-30T12:52:08.165Z,3.08
2022-09-30T12:57:11.574Z,4.80
2022-09-30T13:02:31.731Z,2.60
2022-09-30T13:07:36.199Z,3.35
2022-09-30T13:12:44.112Z,2.92
2022-09-30T13:17:47.000Z,2.90
2022-09-30T13:23:01.515Z,3.38
2022-09-30T13:28:30.685Z,3.03
2022-09-30T13:33:46.263Z,2.70
2022-09-30T13:39:07.959Z,3.83
2022-09-30T13:44:16.448Z,2.15
2022-09-30T13:49:24.845Z,5.10
2022-09-30T13:54:33.986Z,3.25
2022-09-30T13:59:49.182Z,2.95
2022-09-30T14:05:06.475Z,3.30
2022-09-30T14:10:23.535Z,1.75
2022-09-30T14:15:48.247Z,1.90
2022-09-30T14:21:06.438Z,2.58
2022-09-30T14:26:26.010Z,2.10
2022-09-30T14:31:32.259Z,3.50
2022-09-30T14:36:35.622Z,3.58
2022-09-30T14:41:41.132Z,3.40
2022-09-30T14:46:46.682Z,1.58
2022-09-30T14:51:50.133Z,2.80
2022-09-30T14:56:54.531Z,2.33
2022-09-30T15:02:00.591Z,2.10
2022-09-30T15:07:07.203Z,1.67
2022-09-30T15:12:16.072Z,2.90
2022-09-30T15:17:20.367Z,2.85
2022-09-30T15:22:24.799Z,5.28
2022-09-30T15:27:31.577Z,3.15
2022-09-30T15:32:36.579Z,2.35
2022-09-30T15:37:39.744Z,2.72
2022-09-30T15:42:53.919Z,1.55
2022-09-30T15:47:59.171Z,2.45
2022-09-30T15:53:06.140Z,2.58
2022-09-30T15:58:37.868Z,1.50
2022-09-30T16:03:47.487Z,3.25
2022-09-30T16:08:54.953Z,1.90
2022-09-30T16:14:00.204Z,2.30
2022-09-30T16:19:04.672Z,10.52
2022-09-30T16:24:43.889Z,6.47
2022-09-30T16:29:48.241Z,9.88
2022-09-30T16:34:50.964Z,3.50
2022-09-30T16:39:56.611Z,2.42
2022-09-30T16:45:01.883Z,3.45
2022-09-30T16:50:16.624Z,6.40
2022-09-30T16:55:19.565Z,6.95
2022-09-30T17:00:23.755Z,10.50
2022-09-30T17:05:27.542Z,11.95
2022-09-30T17:10:33.334Z,14.65
2022-09-30T17:15:37.689Z,11.27
2022-09-30T17:20:45.172Z,20.73
2022-09-30T17:25:48.414Z,16.35
2022-09-30T17:30:52.446Z,11.60
2022-09-30T17:36:00.425Z,8.68
2022-09-30T17:41:21.320Z,10.48
2022-09-30T17:46:25.579Z,12.27
2022-09-30T17:51:28.362Z,13.98
2022-09-30T17:56:32.088Z,11.93
2022-09-30T18:01:41.400Z,16.77
2022-09-30T18:06:44.112Z,19.55
2022-09-30T18:11:46.998Z,17.60
2022-09-30T18:16:51.070Z,23.77
2022-09-30T18:21:54.023Z,20.00
2022-09-30T18:26:56.704Z,30.08
2022-09-30T18:32:01.110Z,23.10
2022-09-30T18:37:06.485Z,29.38
2022-09-30T18:42:09.394Z,29.77
2022-09-30T18:47:16.206Z,24.05
2022-09-30T18:52:18.947Z,21.50
2022-09-30T18:57:21.610Z,23.25
2022-09-30T19:02:27.191Z,22.80
2022-09-30T19:07:29.988Z,21.20
2022-09-30T19:12:35.827Z,20.77
2022-09-30T19:17:40.009Z,17.27
2022-09-30T19:22:43.451Z,12.98
2022-09-30T19:27:46.667Z,18.52
2022-09-30T19:32:56.500Z,24.67
2022-09-30T19:38:03.074Z,23.40
2022-09-30T19:43:08.095Z,17.33
2022-09-30T19:48:12.059Z,17.90
2022-09-30T19:53:27.383Z,18.42
2022-09-30T19:58:33.426Z,18.13
2022-09-30T20:03:37.417Z,16.33
2022-09-30T20:08:40.522Z,11.57
2022-09-30T20:13:43.508Z,17.27
2022-09-30T20:18:47.448Z,14.55
2022-09-30T20:23:50.540Z,13.77
2022-09-30T20:29:00.967Z,18.92
2022-09-30T20:34:06.017Z,19.55
2022-09-30T20:39:09.129Z,18.60
2022-09-30T20:44:13.077Z,16.75
2022-09-30T20:49:17.106Z,15.60
2022-09-30T20:54:19.747Z,15.25
2022-09-30T20:59:23.136Z,14.00
2022-09-30T21:04:27.070Z,15.18
2022-09-30T21:09:30.619Z,14.38
2022-09-30T21:14:33.235Z,12.67
2022-09-30T21:19:40.320Z,10.85
2022-09-30T21:24:43.104Z,12.63
2022-09-30T21:29:45.730Z,10.55
2022-09-30T21:34:49.697Z,13.88
2022-09-30T21:39:52.351Z,11.90
2022-09-30T21:44:55.542Z,14.10
2022-09-30T21:50:06.424Z,12.27
2022-09-30T21:55:11.717Z,15.35
2022-09-30T22:00:14.646Z,11.68
2022-09-30T22:05:20.712Z,13.63
2022-09-30T22:10:23.307Z,9.93
2022-09-30T22:15:26.023Z,13.48
2022-09-30T22:20:30.450Z,10.40
2022-09-30T22:25:33.288Z,8.35
2022-09-30T22:30:36.071Z,11.05
2022-09-30T22:35:59.816Z,11.85
2022-09-30T22:41:02.895Z,11.65
2022-09-30T22:46:07.924Z,10.85
2022-09-30T22:51:16.885Z,10.98
2022-09-30T22:56:20.084Z,12.35
2022-09-30T23:01:23.073Z,13.13
2022-09-30T23:06:27.121Z,9.32
2022-09-30T23:11:29.932Z,9.93
2022-09-30T23:16:32.835Z,8.75
2022-09-30T23:21:37.411Z,10.23
2022-09-30T23:26:40.261Z,11.77
2022-09-30T23:31:43.155Z,11.38
2022-09-30T23:36:47.406Z,9.77
2022-09-30T23:41:50.776Z,10.30
2022-09-30T23:47:11.099Z,8.02
2022-09-30T23:52:16.094Z,8.57
2022-09-30T23:57:18.666Z,8.65
